createdAt,value
2022-08-10T00:00:23.062Z,24.20
2022-08-10T00:02:27.347Z,24.40
2022-08-10T00:04:31.689Z,24.40
2022-08-10T00:06:36.035Z,24.50
2022-08-10T00:08:40.598Z,24.60
2022-08-10T00:10:44.905Z,24.50
2022-08-10T00:12:49.255Z,24.60
2022-08-10T00:15:00.232Z,24.50
2022-08-10T00:17:06.238Z,24.60
2022-08-10T00:19:10.531Z,24.50
2022-08-10T00:21:15.408Z,24.60
2022-08-10T00:23:20.041Z,24.50
2022-08-10T00:25:24.589Z,24.50
2022-08-10T00:27:53.035Z,24.50
2022-08-10T00:29:54.710Z,24.50
2022-08-10T00:31:59.691Z,24.50
2022-08-10T00:34:05.668Z,24.60
2022-08-10T00:36:11.130Z,24.70
2022-08-10T00:38:15.461Z,24.70
2022-08-10T00:40:19.919Z,24.70
2022-08-10T00:42:42.039Z,24.70
2022-08-10T00:44:50.033Z,24.70
2022-08-10T00:46:54.402Z,24.70
2022-08-10T00:49:00.657Z,24.60
2022-08-10T00:51:07.469Z,24.20
2022-08-10T00:53:11.990Z,24.00
2022-08-10T00:55:16.908Z,23.70
2022-08-10T00:57:21.740Z,23.30
2022-08-10T00:59:26.574Z,23.20
2022-08-10T01:02:09.376Z,23.10
2022-08-10T01:04:39.675Z,23.10
2022-08-10T01:06:31.511Z,23.00
2022-08-10T01:08:44.777Z,22.90
2022-08-10T01:11:00.464Z,22.60
2022-08-10T01:13:11.130Z,22.60
2022-08-10T01:15:21.574Z,22.60
2022-08-10T01:17:49.708Z,22.50
2022-08-10T01:20:03.399Z,22.50
2022-08-10T01:22:41.989Z,22.40
2022-08-10T01:25:22.508Z,22.40
2022-08-10T01:27:33.850Z,22.30
2022-08-10T01:29:55.152Z,22.30
2022-08-10T01:32:04.795Z,22.20
2022-08-10T01:34:16.293Z,22.10
2022-08-10T01:36:32.401Z,22.00
2022-08-10T01:38:41.519Z,22.00
2022-08-10T01:40:51.544Z,22.00
2022-08-10T01:43:08.627Z,22.00
2022-08-10T01:45:17.030Z,22.00
2022-08-10T01:47:41.956Z,22.00
2022-08-10T01:49:48.193Z,22.00
2022-08-10T01:51:56.445Z,22.10
2022-08-10T01:54:12.818Z,22.00
2022-08-10T01:56:20.677Z,22.00
2022-08-10T01:58:28.319Z,21.90
2022-08-10T02:00:41.027Z,21.90
2022-08-10T02:02:48.660Z,22.00
2022-08-10T02:04:56.032Z,22.00
2022-08-10T02:07:01.875Z,22.10
2022-08-10T02:09:08.888Z,22.10
2022-08-10T02:11:14.508Z,22.20
2022-08-10T02:13:40.297Z,22.50
2022-08-10T02:16:01.688Z,22.50
2022-08-10T02:18:08.895Z,22.60
2022-08-10T02:20:19.711Z,22.70
2022-08-10T02:22:45.807Z,22.70
2022-08-10T02:24:51.130Z,22.80
2022-08-10T02:27:07.702Z,22.80
2022-08-10T02:29:21.541Z,22.80
2022-08-10T02:31:28.512Z,22.80
2022-08-10T02:33:38.074Z,22.90
2022-08-10T02:35:55.032Z,23.10
2022-08-10T02:38:06.140Z,23.10
2022-08-10T02:42:18.456Z,23.30
2022-08-10T02:45:22.445Z,23.40
2022-08-10T02:45:29.204Z,23.50
2022-08-10T02:47:50.964Z,23.60
2022-08-10T02:50:04.478Z,23.60
2022-08-10T02:52:13.803Z,23.60
2022-08-10T02:54:25.489Z,23.60
2022-08-10T02:56:37.135Z,23.70
2022-08-10T02:58:45.006Z,23.70
2022-08-10T03:00:53.088Z,23.70
2022-08-10T03:03:00.817Z,23.80
2022-08-10T03:05:08.694Z,23.80
2022-08-10T03:07:16.426Z,23.60
2022-08-10T03:09:21.752Z,23.50
2022-08-10T03:12:35.202Z,23.50
2022-08-10T03:13:59.578Z,23.50
2022-08-10T03:16:05.507Z,23.50
2022-08-10T03:18:13.352Z,23.60
2022-08-10T03:20:37.119Z,23.70
2022-08-10T03:22:46.537Z,23.70
2022-08-10T03:24:52.743Z,23.80
2022-08-10T03:26:58.686Z,23.90
2022-08-10T03:29:05.091Z,23.90
2022-08-10T03:31:09.663Z,24.00
2022-08-10T03:33:17.423Z,24.00
2022-08-10T03:35:23.378Z,24.10
2022-08-10T03:37:29.056Z,24.10
2022-08-10T03:39:33.832Z,24.30
2022-08-10T03:41:53.320Z,24.30
2022-08-10T03:43:59.812Z,24.40
2022-08-10T03:46:09.586Z,24.70
2022-08-10T03:48:16.347Z,25.00
2022-08-10T03:50:28.872Z,25.30
2022-08-10T03:52:46.625Z,25.30
2022-08-10T03:54:51.777Z,25.40
2022-08-10T03:56:56.791Z,25.40
2022-08-10T03:59:01.861Z,25.20
2022-08-10T04:01:07.043Z,25.20
2022-08-10T04:03:11.963Z,25.10
2022-08-10T04:05:18.083Z,25.10
2022-08-10T04:07:22.685Z,25.10
2022-08-10T04:09:53.945Z,25.00
2022-08-10T04:11:55.237Z,24.90
2022-08-10T04:13:59.599Z,24.80
2022-08-10T04:16:07.500Z,24.90
2022-08-10T04:18:12.075Z,24.90
2022-08-10T04:20:22.715Z,24.70
2022-08-10T04:22:29.701Z,24.60
2022-08-10T04:24:37.755Z,24.60
2022-08-10T04:26:42.510Z,24.60
2022-08-10T04:28:46.835Z,24.70
2022-08-10T04:30:53.827Z,24.80
2022-08-10T04:33:00.138Z,24.80
2022-08-10T04:35:06.083Z,24.80
2022-08-10T04:37:13.112Z,24.80
2022-08-10T04:39:18.247Z,24.80
2022-08-10T04:41:22.999Z,24.80
2022-08-10T04:43:27.980Z,24.80
2022-08-10T04:45:48.894Z,24.90
2022-08-10T04:48:02.970Z,25.00
2022-08-10T04:50:09.010Z,25.00
2022-08-10T04:52:15.698Z,25.10
2022-08-10T04:54:19.994Z,25.20
2022-08-10T04:56:31.691Z,25.20
2022-08-10T04:58:36.915Z,25.30
2022-08-10T05:00:41.936Z,25.20
2022-08-10T05:02:46.771Z,25.00
2022-08-10T05:04:51.313Z,25.10
2022-08-10T05:06:55.764Z,25.20
2022-08-10T05:09:02.585Z,25.10
2022-08-10T05:11:07.051Z,25.10
2022-08-10T05:13:11.545Z,25.00
2022-08-10T05:15:18.546Z,24.90
2022-08-10T05:17:23.155Z,24.90
2022-08-10T05:20:03.000Z,25.00
2022-08-10T05:22:02.214Z,25.00
2022-08-10T05:24:10.137Z,25.10
2022-08-10T05:26:14.597Z,25.40
2022-08-10T05:28:19.001Z,25.50
2022-08-10T05:30:30.496Z,25.60
2022-08-10T05:32:56.560Z,25.70
2022-08-10T05:35:00.746Z,25.90
2022-08-10T05:38:10.859Z,26.50
2022-08-10T05:39:42.191Z,27.00
2022-08-10T05:41:52.735Z,27.80
2022-08-10T05:43:58.144Z,28.30
2022-08-10T05:46:19.014Z,28.70
2022-08-10T05:48:54.415Z,28.80
2022-08-10T05:50:50.118Z,29.10
2022-08-10T05:52:54.701Z,29.40
2022-08-10T05:55:02.941Z,29.70
2022-08-10T05:57:08.326Z,30.10
2022-08-10T05:59:14.350Z,30.20
2022-08-10T06:01:23.581Z,30.30
2022-08-10T06:03:33.302Z,30.00
2022-08-10T06:05:38.403Z,30.50
2022-08-10T06:07:48.025Z,30.60
2022-08-10T06:09:59.417Z,29.90
2022-08-10T06:12:27.102Z,29.90
2022-08-10T06:14:53.050Z,30.10
2022-08-10T06:17:04.858Z,30.00
2022-08-10T06:19:09.124Z,29.80
2022-08-10T06:21:14.555Z,29.60
2022-08-10T06:23:19.524Z,29.50
2022-08-10T06:26:09.961Z,29.50
2022-08-10T06:27:50.216Z,28.80
2022-08-10T06:29:56.605Z,28.70
2022-08-10T06:32:02.266Z,28.60
2022-08-10T06:34:07.822Z,28.40
2022-08-10T06:36:14.176Z,28.30
2022-08-10T06:38:19.464Z,28.20
2022-08-10T06:40:26.286Z,28.00
2022-08-10T06:42:33.692Z,27.80
2022-08-10T06:44:45.209Z,27.80
2022-08-10T06:46:53.872Z,27.60
2022-08-10T06:49:02.474Z,27.50
2022-08-10T06:51:08.815Z,27.10
2022-08-10T06:53:15.441Z,26.80
2022-08-10T06:55:55.222Z,26.70
2022-08-10T06:57:59.771Z,26.60
2022-08-10T07:00:09.146Z,27.00
2022-08-10T07:02:17.087Z,27.10
2022-08-10T07:04:32.534Z,27.10
2022-08-10T07:06:39.771Z,27.20
2022-08-10T07:08:45.179Z,27.00
2022-08-10T07:10:50.164Z,26.40
2022-08-10T07:12:59.136Z,26.40
2022-08-10T07:15:06.627Z,26.30
2022-08-10T07:17:15.852Z,26.10
2022-08-10T07:19:22.693Z,26.20
2022-08-10T07:21:28.426Z,26.10
2022-08-10T07:23:57.558Z,26.10
2022-08-10T07:25:59.370Z,26.20
2022-08-10T07:28:05.353Z,26.20
2022-08-10T07:30:12.551Z,26.10
2022-08-10T07:32:17.231Z,25.80
2022-08-10T07:34:29.014Z,25.90
2022-08-10T07:36:36.870Z,26.00
2022-08-10T07:38:44.396Z,26.10
2022-08-10T07:40:52.069Z,26.30
2022-08-10T07:43:01.042Z,26.20
2022-08-10T07:45:06.679Z,26.10
2022-08-10T07:47:16.383Z,25.90
2022-08-10T07:49:24.997Z,25.90
2022-08-10T07:51:30.036Z,26.00
2022-08-10T07:53:40.051Z,26.00
2022-08-10T07:56:04.295Z,25.80
2022-08-10T07:58:10.050Z,26.00
2022-08-10T08:00:15.465Z,25.80
2022-08-10T08:02:27.332Z,25.60
2022-08-10T08:04:33.489Z,25.60
2022-08-10T08:06:38.847Z,25.80
2022-08-10T08:08:49.198Z,25.80
2022-08-10T08:10:54.809Z,26.00
2022-08-10T08:13:01.494Z,26.30
2022-08-10T08:16:14.381Z,26.40
2022-08-10T08:17:36.288Z,26.20
2022-08-10T08:19:46.257Z,26.30
2022-08-10T08:24:10.493Z,26.40
2022-08-10T08:24:34.467Z,26.40
2022-08-10T08:26:42.151Z,26.40
2022-08-10T08:28:52.111Z,26.50
2022-08-10T08:30:57.755Z,26.50
2022-08-10T08:33:04.567Z,26.50
2022-08-10T08:35:11.451Z,26.50
2022-08-10T08:38:32.517Z,26.60
2022-08-10T08:39:47.174Z,26.70
2022-08-10T08:42:05.505Z,26.80
2022-08-10T08:44:21.074Z,26.80
2022-08-10T08:46:58.916Z,26.80
2022-08-10T08:50:08.479Z,26.70
2022-08-10T08:52:22.728Z,26.60
2022-08-10T08:54:39.938Z,26.50
2022-08-10T08:56:54.214Z,26.50
2022-08-10T08:59:19.227Z,26.50
2022-08-10T09:01:38.196Z,26.50
2022-08-10T09:04:02.045Z,26.50
2022-08-10T09:06:24.503Z,26.70
2022-08-10T09:08:46.603Z,26.90
2022-08-10T09:10:58.882Z,26.90
2022-08-10T09:13:08.121Z,26.90
2022-08-10T09:15:40.713Z,26.70
2022-08-10T09:17:56.438Z,26.70
2022-08-10T09:20:06.781Z,26.30
2022-08-10T09:22:23.715Z,26.40
2022-08-10T09:24:34.255Z,26.60
2022-08-10T09:26:48.140Z,26.30
2022-08-10T09:29:12.619Z,26.30
2022-08-10T09:31:25.979Z,26.70
2022-08-10T09:36:21.610Z,26.40
2022-08-10T09:36:33.428Z,26.30
2022-08-10T09:38:49.056Z,26.40
2022-08-10T09:41:09.142Z,26.50
2022-08-10T09:43:26.814Z,26.60
2022-08-10T09:45:40.755Z,26.60
2022-08-10T09:48:02.298Z,26.60
2022-08-10T09:50:20.455Z,26.70
2022-08-10T09:52:34.387Z,26.80
2022-08-10T09:54:54.725Z,27.10
2022-08-10T09:57:44.876Z,27.10
2022-08-10T10:00:00.838Z,27.30
2022-08-10T10:02:22.821Z,27.30
2022-08-10T10:04:34.830Z,27.00
2022-08-10T10:06:45.187Z,26.60
2022-08-10T10:09:10.251Z,26.60
2022-08-10T10:11:22.391Z,26.80
2022-08-10T10:13:41.629Z,26.70
2022-08-10T10:16:09.844Z,26.80
2022-08-10T10:18:30.422Z,26.90
2022-08-10T10:20:40.686Z,27.10
2022-08-10T10:23:00.181Z,27.30
2022-08-10T10:25:20.799Z,27.60
2022-08-10T10:27:36.632Z,28.00
2022-08-10T10:29:58.486Z,28.00
2022-08-10T10:32:09.917Z,27.90
2022-08-10T10:34:22.584Z,27.90
2022-08-10T10:36:36.427Z,28.10
2022-08-10T10:38:42.968Z,27.80
2022-08-10T10:40:53.397Z,27.80
2022-08-10T10:43:08.927Z,28.00
2022-08-10T10:45:20.006Z,28.10
2022-08-10T10:47:46.500Z,27.80
2022-08-10T10:49:59.329Z,27.70
2022-08-10T10:52:16.191Z,27.70
2022-08-10T10:54:36.019Z,27.70
2022-08-10T10:56:53.389Z,27.80
2022-08-10T10:59:55.390Z,28.00
2022-08-10T11:01:55.262Z,28.00
2022-08-10T11:04:15.502Z,28.30
2022-08-10T11:06:39.529Z,28.40
2022-08-10T11:08:52.012Z,28.30
2022-08-10T11:11:00.909Z,28.20
2022-08-10T11:14:27.174Z,28.30
2022-08-10T11:16:02.763Z,28.30
2022-08-10T11:18:14.015Z,28.50
2022-08-10T11:20:28.579Z,28.50
2022-08-10T11:22:38.003Z,28.40
2022-08-10T11:24:50.545Z,28.60
2022-08-10T11:27:02.791Z,28.80
2022-08-10T11:29:15.434Z,29.00
2022-08-10T11:31:28.449Z,29.10
2022-08-10T11:34:11.467Z,29.10
2022-08-10T11:36:27.162Z,29.10
2022-08-10T11:38:52.012Z,29.30
2022-08-10T11:42:06.754Z,29.30
2022-08-10T11:43:39.403Z,29.50
2022-08-10T11:45:52.434Z,29.80
2022-08-10T11:48:09.687Z,30.00
2022-08-10T11:50:22.067Z,30.20
2022-08-10T11:52:35.775Z,30.30
2022-08-10T11:54:44.987Z,30.30
2022-08-10T11:57:01.331Z,30.30
2022-08-10T11:59:24.264Z,29.90
2022-08-10T12:01:31.922Z,29.80
2022-08-10T12:03:40.453Z,29.80
2022-08-10T12:05:51.916Z,29.50
2022-08-10T12:09:23.939Z,29.50
2022-08-10T12:10:27.881Z,29.70
2022-08-10T12:12:38.115Z,29.80
2022-08-10T12:14:49.753Z,29.80
2022-08-10T12:17:00.657Z,29.90
2022-08-10T12:19:16.473Z,30.00
2022-08-10T12:21:24.579Z,30.10
2022-08-10T12:23:39.319Z,29.70
2022-08-10T12:25:57.679Z,29.30
2022-08-10T12:28:11.007Z,29.60
2022-08-10T12:30:17.545Z,29.90
2022-08-10T12:32:32.485Z,30.00
2022-08-10T12:34:50.127Z,29.90
2022-08-10T12:37:05.804Z,30.00
2022-08-10T12:39:17.135Z,30.20
2022-08-10T12:41:41.598Z,30.30
2022-08-10T12:44:06.543Z,30.30
2022-08-10T12:46:19.765Z,30.10
2022-08-10T12:48:31.583Z,30.20
2022-08-10T12:50:43.127Z,30.30
2022-08-10T12:52:57.513Z,30.20
2022-08-10T12:55:06.525Z,30.30
2022-08-10T12:57:13.711Z,30.50
2022-08-10T12:59:19.676Z,30.60
2022-08-10T13:01:27.678Z,30.60
2022-08-10T13:04:20.693Z,30.50
2022-08-10T13:06:22.628Z,30.30
2022-08-10T13:08:44.774Z,30.20
2022-08-10T13:11:00.973Z,30.00
2022-08-10T13:13:05.696Z,30.20
2022-08-10T13:15:43.146Z,30.00
2022-08-10T13:17:42.698Z,30.20
2022-08-10T13:19:55.414Z,30.20
2022-08-10T13:22:05.236Z,30.30
2022-08-10T13:24:13.078Z,30.50
2022-08-10T13:26:21.560Z,30.50
2022-08-10T13:28:36.951Z,30.60
2022-08-10T13:30:44.616Z,30.80
2022-08-10T13:32:55.987Z,30.80
2022-08-10T13:35:04.969Z,31.00
2022-08-10T13:37:11.567Z,30.70
2022-08-10T13:39:18.323Z,30.70
2022-08-10T13:41:27.045Z,30.40
2022-08-10T13:43:31.445Z,30.20
2022-08-10T13:45:42.310Z,30.00
2022-08-10T13:47:52.121Z,30.00
2022-08-10T13:50:00.616Z,30.00
2022-08-10T13:52:12.774Z,29.80
2022-08-10T13:54:19.572Z,29.80
2022-08-10T13:56:24.947Z,29.30
2022-08-10T13:58:31.886Z,28.40
2022-08-10T14:00:39.973Z,28.10
2022-08-10T14:02:49.665Z,27.80
2022-08-10T14:04:55.207Z,27.60
2022-08-10T14:07:01.604Z,27.30
2022-08-10T14:09:10.956Z,27.20
2022-08-10T14:11:19.651Z,27.10
2022-08-10T14:13:25.945Z,26.90
2022-08-10T14:15:35.482Z,26.80
2022-08-10T14:17:44.727Z,26.80
2022-08-10T14:19:58.936Z,26.60
2022-08-10T14:22:03.971Z,26.60
2022-08-10T14:24:20.376Z,26.70
2022-08-10T14:26:29.786Z,26.70
2022-08-10T14:28:37.261Z,26.70
2022-08-10T14:30:44.109Z,26.80
2022-08-10T14:32:50.592Z,26.90
2022-08-10T14:36:15.578Z,27.00
2022-08-10T14:37:25.802Z,26.90
2022-08-10T14:39:35.841Z,26.70
2022-08-10T14:42:02.916Z,26.90
2022-08-10T14:44:09.224Z,26.90
2022-08-10T14:46:20.890Z,26.90
2022-08-10T14:48:32.991Z,26.90
2022-08-10T14:50:37.979Z,26.70
2022-08-10T14:53:09.635Z,26.80
2022-08-10T14:55:19.359Z,26.70
2022-08-10T14:58:19.534Z,26.50
2022-08-10T15:00:23.266Z,26.40
2022-08-10T15:02:39.093Z,26.30
2022-08-10T15:04:46.891Z,26.40
2022-08-10T15:06:57.609Z,26.30
2022-08-10T15:09:12.337Z,26.20
2022-08-10T15:12:14.127Z,26.30
2022-08-10T15:14:38.769Z,26.20
2022-08-10T15:16:38.536Z,26.20
2022-08-10T15:18:58.207Z,26.20
2022-08-10T15:21:17.017Z,26.10
2022-08-10T15:23:30.975Z,26.00
2022-08-10T15:25:57.641Z,25.90
2022-08-10T15:28:10.828Z,25.50
2022-08-10T15:30:17.334Z,25.50
2022-08-10T15:32:41.658Z,25.50
2022-08-10T15:35:05.887Z,25.40
2022-08-10T15:37:40.699Z,25.30
2022-08-10T15:40:21.698Z,25.20
2022-08-10T15:42:09.134Z,25.10
2022-08-10T15:44:37.540Z,25.00
2022-08-10T15:46:51.747Z,24.90
2022-08-10T15:49:08.781Z,24.90
2022-08-10T15:51:22.160Z,24.90
2022-08-10T15:53:48.973Z,24.90
2022-08-10T15:55:58.381Z,24.80
2022-08-10T15:58:08.947Z,24.80
2022-08-10T16:00:17.943Z,24.80
2022-08-10T16:02:28.938Z,24.90
2022-08-10T16:04:36.812Z,25.00
2022-08-10T16:06:44.704Z,24.90
2022-08-10T16:08:55.915Z,24.70
2022-08-10T16:11:06.206Z,24.60
2022-08-10T16:13:50.518Z,24.50
2022-08-10T16:15:41.107Z,24.40
2022-08-10T16:17:54.527Z,24.40
2022-08-10T16:20:01.583Z,24.50
2022-08-10T16:22:35.289Z,24.40
2022-08-10T16:24:38.391Z,24.40
2022-08-10T16:26:48.107Z,24.50
2022-08-10T16:28:59.154Z,24.40
2022-08-10T16:31:08.363Z,24.60
2022-08-10T16:33:18.339Z,24.70
2022-08-10T16:35:24.713Z,24.70
2022-08-10T16:37:58.410Z,24.80
2022-08-10T16:40:02.877Z,24.70
2022-08-10T16:42:20.352Z,24.70
2022-08-10T16:44:30.500Z,24.60
2022-08-10T16:46:35.627Z,24.60
2022-08-10T16:48:49.476Z,24.40
2022-08-10T16:50:58.207Z,24.40
2022-08-10T16:53:03.788Z,24.30
2022-08-10T16:55:23.654Z,24.20
2022-08-10T16:57:31.196Z,24.10
2022-08-10T16:59:39.755Z,24.00
2022-08-10T17:01:51.327Z,23.80
2022-08-10T17:04:09.945Z,23.80
2022-08-10T17:06:20.961Z,23.80
2022-08-10T17:08:26.468Z,23.70
2022-08-10T17:10:32.863Z,23.70
2022-08-10T17:12:40.370Z,23.70
2022-08-10T17:14:45.429Z,23.70
2022-08-10T17:17:00.460Z,23.60
2022-08-10T17:19:13.140Z,23.40
2022-08-10T17:21:21.917Z,23.40
2022-08-10T17:23:28.791Z,23.30
2022-08-10T17:25:48.586Z,23.20
2022-08-10T17:28:04.050Z,23.40
2022-08-10T17:30:32.242Z,23.40
2022-08-10T17:32:44.959Z,23.30
2022-08-10T17:34:57.267Z,23.30
2022-08-10T17:37:06.720Z,23.20
2022-08-10T17:39:13.932Z,23.10
2022-08-10T17:41:24.750Z,22.90
2022-08-10T17:44:00.707Z,22.80
2022-08-10T17:45:56.947Z,22.80
2022-08-10T17:48:06.684Z,22.90
2022-08-10T17:50:14.230Z,23.00
2022-08-10T17:52:22.810Z,23.10
2022-08-10T17:54:31.284Z,23.10
2022-08-10T17:56:38.049Z,23.20
2022-08-10T17:58:49.781Z,23.10
2022-08-10T18:00:57.482Z,23.00
2022-08-10T18:03:25.285Z,22.90
2022-08-10T18:05:35.061Z,22.90
2022-08-10T18:07:45.621Z,22.80
2022-08-10T18:09:52.901Z,22.80
2022-08-10T18:12:02.036Z,22.60
2022-08-10T18:14:09.956Z,22.50
2022-08-10T18:16:16.599Z,22.50
2022-08-10T18:18:24.307Z,22.50
2022-08-10T18:20:35.985Z,22.50
2022-08-10T18:22:45.537Z,22.60
2022-08-10T18:24:52.097Z,22.70
2022-08-10T18:27:09.108Z,22.50
2022-08-10T18:29:18.689Z,22.40
2022-08-10T18:31:26.388Z,22.40
2022-08-10T18:33:35.724Z,22.40
2022-08-10T18:35:43.008Z,22.30
2022-08-10T18:37:50.313Z,22.20
2022-08-10T18:40:03.685Z,22.10
2022-08-10T18:42:16.908Z,22.20
2022-08-10T18:44:55.632Z,22.10
2022-08-10T18:47:03.446Z,22.10
2022-08-10T18:49:14.106Z,22.20
2022-08-10T18:51:26.273Z,22.20
2022-08-10T18:53:36.097Z,22.20
2022-08-10T18:55:46.231Z,22.20
2022-08-10T18:58:22.797Z,22.10
2022-08-10T19:00:34.995Z,22.20
2022-08-10T19:03:10.210Z,22.10
2022-08-10T19:05:31.179Z,22.10
2022-08-10T19:08:03.368Z,22.10
2022-08-10T19:10:21.692Z,22.20
2022-08-10T19:12:41.107Z,22.10
2022-08-10T19:14:59.070Z,22.30
2022-08-10T19:17:13.764Z,22.20
2022-08-10T19:19:38.437Z,22.10
2022-08-10T19:21:47.810Z,22.10
2022-08-10T19:24:06.156Z,22.20
2022-08-10T19:26:43.969Z,22.30
2022-08-10T19:28:59.461Z,22.40
2022-08-10T19:31:11.367Z,22.30
2022-08-10T19:33:26.358Z,22.20
2022-08-10T19:36:03.431Z,22.20
2022-08-10T19:38:17.332Z,22.20
2022-08-10T19:40:46.131Z,22.20
2022-08-10T19:42:56.571Z,22.20
2022-08-10T19:45:58.214Z,22.30
2022-08-10T19:47:46.830Z,22.40
2022-08-10T19:49:56.715Z,22.40
2022-08-10T19:52:05.072Z,22.30
2022-08-10T19:54:21.353Z,22.30
2022-08-10T19:56:35.003Z,22.40
2022-08-10T19:58:47.217Z,22.30
2022-08-10T20:00:58.723Z,22.30
2022-08-10T20:03:12.419Z,22.40
2022-08-10T20:05:21.794Z,22.40
2022-08-10T20:07:35.344Z,22.40
2022-08-10T20:09:47.340Z,22.40
2022-08-10T20:12:00.098Z,22.40
2022-08-10T20:14:21.522Z,22.50
2022-08-10T20:16:38.481Z,22.40
2022-08-10T20:18:45.377Z,22.50
2022-08-10T20:20:51.089Z,22.50
2022-08-10T20:23:04.586Z,22.60
2022-08-10T20:25:14.223Z,22.50
2022-08-10T20:27:58.160Z,22.50
2022-08-10T20:29:59.425Z,22.60
2022-08-10T20:32:06.891Z,22.70
2022-08-10T20:34:24.076Z,22.80
2022-08-10T20:36:32.455Z,22.90
2022-08-10T20:38:44.769Z,22.90
2022-08-10T20:40:55.383Z,22.90
2022-08-10T20:43:08.214Z,22.90
2022-08-10T20:45:21.848Z,22.90
2022-08-10T20:47:54.831Z,22.90
2022-08-10T20:50:11.249Z,23.00
2022-08-10T20:52:16.258Z,23.20
2022-08-10T20:54:29.573Z,23.20
2022-08-10T20:56:44.132Z,23.10
2022-08-10T20:59:20.034Z,23.20
2022-08-10T21:02:07.482Z,23.30
2022-08-10T21:04:13.617Z,23.20
2022-08-10T21:06:44.495Z,23.30
2022-08-10T21:08:58.502Z,23.20
2022-08-10T21:11:09.580Z,23.20
2022-08-10T21:13:33.187Z,23.20
2022-08-10T21:16:02.178Z,23.20
2022-08-10T21:18:22.416Z,23.30
2022-08-10T21:20:47.677Z,23.30
2022-08-10T21:23:05.312Z,23.20
2022-08-10T21:25:15.379Z,23.20
2022-08-10T21:27:36.408Z,23.20
2022-08-10T21:29:56.006Z,23.30
2022-08-10T21:32:18.880Z,23.20
2022-08-10T21:34:54.440Z,23.20
2022-08-10T21:37:08.002Z,23.20
2022-08-10T21:39:20.490Z,23.20
2022-08-10T21:41:58.420Z,23.10
2022-08-10T21:44:34.632Z,23.10
2022-08-10T21:47:06.400Z,23.10
2022-08-10T21:49:39.304Z,23.10
2022-08-10T21:52:07.253Z,23.10
2022-08-10T21:54:35.839Z,23.10
2022-08-10T21:57:07.895Z,23.10
2022-08-10T21:59:42.223Z,23.10
2022-08-10T22:02:09.866Z,23.30
2022-08-10T22:04:33.277Z,23.30
2022-08-10T22:06:59.082Z,23.10
2022-08-10T22:09:26.721Z,23.00
2022-08-10T22:12:04.770Z,22.90
2022-08-10T22:14:33.557Z,22.80
2022-08-10T22:17:04.000Z,22.80
2022-08-10T22:19:27.096Z,22.80
2022-08-10T22:22:02.056Z,22.80
2022-08-10T22:24:41.314Z,22.80
2022-08-10T22:27:46.070Z,22.70
2022-08-10T22:30:07.122Z,22.70
2022-08-10T22:32:39.086Z,22.70
2022-08-10T22:35:21.291Z,22.70
2022-08-10T22:37:56.148Z,22.70
2022-08-10T22:40:23.337Z,22.60
2022-08-10T22:42:59.266Z,22.60
2022-08-10T22:45:33.554Z,22.60
2022-08-10T22:47:55.527Z,22.60
2022-08-10T22:50:03.456Z,22.50
2022-08-10T22:52:20.232Z,22.50
2022-08-10T22:54:50.203Z,22.60
2022-08-10T22:57:11.917Z,22.60
2022-08-10T22:59:16.428Z,22.70
2022-08-10T23:03:56.857Z,22.80
2022-08-10T23:06:07.677Z,22.80
2022-08-10T23:08:29.408Z,22.80
2022-08-10T23:10:40.344Z,22.70
2022-08-10T23:12:49.798Z,22.70
2022-08-10T23:15:13.854Z,22.70
2022-08-10T23:18:00.498Z,22.70
2022-08-10T23:20:09.633Z,22.70
2022-08-10T23:22:16.744Z,22.80
2022-08-10T23:24:27.176Z,22.70
2022-08-10T23:26:34.146Z,22.70
2022-08-10T23:28:59.863Z,22.70
2022-08-10T23:31:11.228Z,22.60
2022-08-10T23:33:15.481Z,22.70
2022-08-10T23:36:08.834Z,22.70
2022-08-10T23:37:49.244Z,22.70
2022-08-10T23:39:55.391Z,22.60
2022-08-10T23:42:07.442Z,22.60
2022-08-10T23:44:13.062Z,22.60
2022-08-10T23:46:26.425Z,22.50
2022-08-10T23:48:34.327Z,22.50
2022-08-10T23:50:40.640Z,22.40
2022-08-10T23:53:00.726Z,22.40
2022-08-10T23:55:09.608Z,22.50
2022-08-10T23:57:18.981Z,22.40
2022-08-10T23:59:26.333Z,22.40
